createdAt,value
2022-08-16T00:03:13.667Z,100500.25
2022-08-16T00:06:18.632Z,100505.81
2022-08-16T00:09:24.889Z,100508.75
2022-08-16T00:12:31.970Z,100509.72
2022-08-16T00:15:50.906Z,100502.34
2022-08-16T00:18:56.181Z,100511.28
2022-08-16T00:22:06.807Z,100506.22
2022-08-16T00:26:35.717Z,100503.06
2022-08-16T00:28:46.174Z,100505.22
2022-08-16T00:31:59.624Z,100508.63
2022-08-16T00:35:13.268Z,100513.56
2022-08-16T00:38:40.353Z,100519.97
2022-08-16T00:41:46.852Z,100516.34
2022-08-16T00:44:57.541Z,100525.03
2022-08-16T00:48:04.393Z,100524.78
2022-08-16T00:51:29.766Z,100524.69
2022-08-16T00:54:33.942Z,100520.94
2022-08-16T00:57:59.205Z,100525.66
2022-08-16T01:01:03.398Z,100529.53
2022-08-16T01:04:29.569Z,100530.34
2022-08-16T01:07:51.020Z,100524.44
2022-08-16T01:10:59.840Z,100540.69
2022-08-16T01:14:14.099Z,100528.13
2022-08-16T01:17:25.060Z,100531.75
2022-08-16T01:20:36.574Z,100527.97
2022-08-16T01:24:53.314Z,100534.38
2022-08-16T01:27:43.929Z,100540.03
2022-08-16T01:30:53.789Z,100543.16
2022-08-16T01:33:57.959Z,100544.34
2022-08-16T01:37:05.240Z,100552.06
2022-08-16T01:40:13.564Z,100557.69
2022-08-16T01:43:20.679Z,100563.97
2022-08-16T01:46:39.594Z,100570.88
2022-08-16T01:50:41.265Z,100568.84
2022-08-16T01:53:10.080Z,100570.44
2022-08-16T01:56:24.485Z,100579.38
2022-08-16T01:59:30.768Z,100582.66
2022-08-16T02:02:34.603Z,100580.00
2022-08-16T02:05:51.765Z,100581.44
2022-08-16T02:08:56.438Z,100571.44
2022-08-16T02:12:49.406Z,100569.84
2022-08-16T02:15:35.308Z,100574.72
2022-08-16T02:18:40.226Z,100577.81
2022-08-16T02:22:09.034Z,100574.44
2022-08-16T02:25:15.065Z,100571.56
2022-08-16T02:28:23.570Z,100574.81
2022-08-16T02:32:03.558Z,100578.34
2022-08-16T02:34:51.346Z,100588.22
2022-08-16T02:38:01.719Z,100584.84
2022-08-16T02:41:12.415Z,100582.91
2022-08-16T02:44:19.436Z,100577.59
2022-08-16T02:47:25.097Z,100579.94
2022-08-16T02:50:53.705Z,100569.91
2022-08-16T02:53:53.515Z,100573.19
2022-08-16T02:56:57.149Z,100571.13
2022-08-16T03:00:33.783Z,100574.66
2022-08-16T03:04:39.885Z,100562.53
2022-08-16T03:06:56.393Z,100569.66
2022-08-16T03:10:00.933Z,100567.13
2022-08-16T03:13:12.563Z,100565.66
2022-08-16T03:16:32.920Z,100556.00
2022-08-16T03:19:47.139Z,100556.56
2022-08-16T03:23:00.156Z,100558.09
2022-08-16T03:26:06.066Z,100567.38
2022-08-16T03:29:12.103Z,100562.41
2022-08-16T03:32:17.531Z,100569.97
2022-08-16T03:35:33.087Z,100561.38
2022-08-16T03:38:38.051Z,100567.66
2022-08-16T03:41:50.661Z,100559.78
2022-08-16T03:45:03.903Z,100558.94
2022-08-16T03:48:14.882Z,100552.91
2022-08-16T03:51:23.593Z,100555.69
2022-08-16T03:54:29.402Z,100552.16
2022-08-16T03:57:36.287Z,100552.16
2022-08-16T04:00:41.399Z,100548.66
2022-08-16T04:03:46.599Z,100548.66
2022-08-16T04:06:50.284Z,100550.56
2022-08-16T04:09:54.931Z,100552.16
2022-08-16T04:13:04.698Z,100548.88
2022-08-16T04:16:27.470Z,100562.91
2022-08-16T04:19:34.929Z,100563.97
2022-08-16T04:22:39.865Z,100562.84
2022-08-16T04:25:47.101Z,100564.25
2022-08-16T04:28:53.568Z,100562.31
2022-08-16T04:32:01.082Z,100569.31
2022-08-16T04:35:15.061Z,100570.16
2022-08-16T04:38:21.196Z,100579.00
2022-08-16T04:41:32.675Z,100583.56
2022-08-16T04:44:54.140Z,100586.75
2022-08-16T04:48:00.116Z,100591.78
2022-08-16T04:51:12.290Z,100598.50
2022-08-16T04:54:19.498Z,100598.38
2022-08-16T04:57:23.220Z,100599.56
2022-08-16T05:00:34.032Z,100608.44
2022-08-16T05:03:41.870Z,100618.72
2022-08-16T05:07:03.208Z,100617.75
2022-08-16T05:10:19.647Z,100615.41
2022-08-16T05:13:40.753Z,100623.13
2022-08-16T05:16:45.746Z,100616.28
2022-08-16T05:19:57.638Z,100619.69
2022-08-16T05:23:03.494Z,100622.75
2022-08-16T05:26:19.586Z,100614.91
2022-08-16T05:29:24.885Z,100623.03
2022-08-16T05:32:48.311Z,100632.97
2022-08-16T05:35:55.968Z,100630.31
2022-08-16T05:39:03.634Z,100627.94
2022-08-16T05:42:08.240Z,100634.13
2022-08-16T05:45:12.884Z,100637.91
2022-08-16T05:48:27.009Z,100638.50
2022-08-16T05:51:38.675Z,100634.72
2022-08-16T05:54:58.579Z,100640.44
2022-08-16T05:58:05.765Z,100636.94
2022-08-16T06:01:09.858Z,100646.84
2022-08-16T06:04:34.570Z,100643.41
2022-08-16T06:07:42.612Z,100654.63
2022-08-16T06:11:05.618Z,100641.09
2022-08-16T06:14:21.132Z,100636.34
2022-08-16T06:17:43.219Z,100648.31
2022-08-16T06:20:55.846Z,100640.53
2022-08-16T06:24:01.475Z,100643.16
2022-08-16T06:27:27.135Z,100641.22
2022-08-16T06:30:45.205Z,100648.31
2022-08-16T06:33:51.857Z,100650.63
2022-08-16T06:36:59.336Z,100660.06
2022-08-16T06:40:04.195Z,100660.88
2022-08-16T06:43:09.271Z,100657.38
2022-08-16T06:46:31.607Z,100662.13
2022-08-16T06:49:35.810Z,100658.81
2022-08-16T06:53:00.008Z,100665.13
2022-08-16T06:56:05.994Z,100666.69
2022-08-16T06:59:11.348Z,100657.59
2022-08-16T07:02:32.909Z,100658.41
2022-08-16T07:05:41.714Z,100667.31
2022-08-16T07:08:46.548Z,100667.34
2022-08-16T07:11:51.932Z,100673.34
2022-08-16T07:15:00.735Z,100674.78
2022-08-16T07:18:05.582Z,100673.72
2022-08-16T07:21:10.051Z,100675.31
2022-08-16T07:24:29.844Z,100672.94
2022-08-16T07:27:37.263Z,100671.28
2022-08-16T07:30:46.263Z,100672.97
2022-08-16T07:33:53.203Z,100675.81
2022-08-16T07:36:59.075Z,100669.88
2022-08-16T07:40:11.145Z,100678.75
2022-08-16T07:43:15.368Z,100673.41
2022-08-16T07:46:39.277Z,100672.13
2022-08-16T07:49:52.918Z,100669.56
2022-08-16T07:52:57.269Z,100663.41
2022-08-16T07:56:04.668Z,100667.19
2022-08-16T07:59:09.785Z,100670.41
2022-08-16T08:02:20.513Z,100674.94
2022-08-16T08:05:35.526Z,100690.25
2022-08-16T08:08:51.298Z,100693.47
2022-08-16T08:12:00.864Z,100699.94
2022-08-16T08:15:09.675Z,100700.56
2022-08-16T08:18:30.631Z,100697.16
2022-08-16T08:22:00.944Z,100703.75
2022-08-16T08:25:03.563Z,100707.56
2022-08-16T08:28:10.950Z,100705.84
2022-08-16T08:31:16.233Z,100709.34
2022-08-16T08:34:25.872Z,100705.78
2022-08-16T08:37:54.324Z,100709.06
2022-08-16T08:40:53.801Z,100707.09
2022-08-16T08:43:58.882Z,100706.38
2022-08-16T08:47:10.942Z,100707.53
2022-08-16T08:50:31.569Z,100712.59
2022-08-16T08:53:37.061Z,100716.13
2022-08-16T08:56:45.822Z,100717.47
2022-08-16T08:59:49.924Z,100722.41
2022-08-16T09:02:57.719Z,100721.19
2022-08-16T09:06:03.923Z,100724.34
2022-08-16T09:09:09.620Z,100724.50
2022-08-16T09:12:36.190Z,100713.53
2022-08-16T09:15:41.358Z,100721.34
2022-08-16T09:18:45.653Z,100722.13
2022-08-16T09:21:56.239Z,100729.66
2022-08-16T09:25:11.321Z,100715.16
2022-08-16T09:29:13.311Z,100723.75
2022-08-16T09:31:41.938Z,100718.06
2022-08-16T09:34:45.998Z,100725.91
2022-08-16T09:38:00.404Z,100721.59
2022-08-16T09:41:14.934Z,100728.59
2022-08-16T09:45:12.274Z,100724.97
2022-08-16T09:47:57.064Z,100725.78
2022-08-16T09:51:01.821Z,100732.53
2022-08-16T09:54:09.770Z,100736.31
2022-08-16T09:57:13.814Z,100736.66
2022-08-16T10:00:42.200Z,100742.06
2022-08-16T10:04:01.801Z,100735.81
2022-08-16T10:07:14.959Z,100738.88
2022-08-16T10:10:31.007Z,100740.03
2022-08-16T10:13:34.684Z,100736.78
2022-08-16T10:16:38.886Z,100745.25
2022-08-16T10:19:43.262Z,100738.56
2022-08-16T10:22:47.399Z,100750.88
2022-08-16T10:27:17.690Z,100744.91
2022-08-16T10:29:19.945Z,100746.28
2022-08-16T10:32:25.159Z,100750.81
2022-08-16T10:35:34.483Z,100748.00
2022-08-16T10:38:51.829Z,100747.47
2022-08-16T10:41:57.198Z,100751.91
2022-08-16T10:45:03.704Z,100746.28
2022-08-16T10:48:27.422Z,100742.66
2022-08-16T10:51:34.316Z,100745.06
2022-08-16T10:54:59.574Z,100741.03
2022-08-16T10:58:11.434Z,100744.56
2022-08-16T11:01:40.013Z,100747.59
2022-08-16T11:08:07.085Z,100742.03
2022-08-16T11:11:19.096Z,100739.19
2022-08-16T11:14:25.212Z,100747.78
2022-08-16T11:17:32.601Z,100740.69
2022-08-16T11:20:42.258Z,100743.31
2022-08-16T11:23:57.483Z,100747.97
2022-08-16T11:27:23.982Z,100752.66
2022-08-16T11:30:37.842Z,100752.34
2022-08-16T11:33:58.622Z,100751.16
2022-08-16T11:37:03.942Z,100757.31
2022-08-16T11:40:11.003Z,100765.63
2022-08-16T11:43:18.139Z,100754.00
2022-08-16T11:46:45.012Z,100747.53
2022-08-16T11:49:51.268Z,100744.44
2022-08-16T11:52:54.975Z,100739.97
2022-08-16T11:55:58.982Z,100748.41
2022-08-16T11:59:03.378Z,100747.41
2022-08-16T12:02:32.378Z,100740.94
2022-08-16T12:05:36.793Z,100750.75
2022-08-16T12:08:47.378Z,100748.94
2022-08-16T12:11:53.008Z,100746.44
2022-08-16T12:14:59.861Z,100753.50
2022-08-16T12:18:07.091Z,100741.97
2022-08-16T12:21:14.155Z,100753.69
2022-08-16T12:24:18.078Z,100750.81
2022-08-16T12:27:24.139Z,100739.03
2022-08-16T12:30:37.737Z,100749.13
2022-08-16T12:33:44.784Z,100745.72
2022-08-16T12:36:48.756Z,100740.38
2022-08-16T12:39:52.998Z,100748.75
2022-08-16T12:43:00.935Z,100743.00
2022-08-16T12:46:04.848Z,100753.44
2022-08-16T12:49:13.098Z,100738.97
2022-08-16T12:52:33.196Z,100749.03
2022-08-16T12:55:41.909Z,100745.44
2022-08-16T12:58:51.632Z,100747.38
2022-08-16T13:01:58.142Z,100746.47
2022-08-16T13:05:03.710Z,100754.50
2022-08-16T13:08:20.046Z,100747.63
2022-08-16T13:11:37.853Z,100744.28
2022-08-16T13:14:46.907Z,100750.56
2022-08-16T13:17:54.049Z,100750.09
2022-08-16T13:21:00.126Z,100748.94
2022-08-16T13:24:04.232Z,100751.56
2022-08-16T13:27:09.455Z,100752.69
2022-08-16T13:30:35.343Z,100757.97
2022-08-16T13:33:38.081Z,100750.69
2022-08-16T13:36:49.423Z,100758.06
2022-08-16T13:39:53.809Z,100754.63
2022-08-16T13:42:57.844Z,100755.28
2022-08-16T13:46:04.397Z,100752.28
2022-08-16T13:49:08.664Z,100756.56
2022-08-16T13:52:14.655Z,100760.81
2022-08-16T13:55:18.418Z,100769.63
2022-08-16T13:58:36.778Z,100762.75
2022-08-16T14:01:47.114Z,100761.59
2022-08-16T14:05:04.979Z,100761.91
2022-08-16T14:08:11.212Z,100767.31
2022-08-16T14:11:16.434Z,100767.63
2022-08-16T14:14:20.408Z,100765.66
2022-08-16T14:18:15.990Z,100762.75
2022-08-16T14:20:56.655Z,100759.72
2022-08-16T14:24:02.702Z,100760.19
2022-08-16T14:27:12.280Z,100756.06
2022-08-16T14:30:20.814Z,100754.19
2022-08-16T14:33:24.507Z,100758.53
2022-08-16T14:36:30.570Z,100752.84
2022-08-16T14:39:36.403Z,100743.28
2022-08-16T14:42:44.446Z,100751.47
2022-08-16T14:45:50.384Z,100756.66
2022-08-16T14:48:55.764Z,100755.72
2022-08-16T14:52:03.633Z,100754.06
2022-08-16T14:55:11.942Z,100759.38
2022-08-16T14:58:19.580Z,100759.91
2022-08-16T15:01:24.580Z,100756.22
2022-08-16T15:04:49.343Z,100763.31
2022-08-16T15:07:54.163Z,100761.44
2022-08-16T15:10:59.112Z,100762.97
2022-08-16T15:14:03.846Z,100766.00
2022-08-16T15:17:08.796Z,100766.84
2022-08-16T15:20:13.420Z,100765.47
2022-08-16T15:23:25.121Z,100776.25
2022-08-16T15:26:42.768Z,100769.84
2022-08-16T15:29:52.268Z,100785.16
2022-08-16T15:33:05.703Z,100790.69
2022-08-16T15:36:18.555Z,100796.53
2022-08-16T15:39:30.327Z,100791.13
2022-08-16T15:42:54.100Z,100798.50
2022-08-16T15:46:34.700Z,100783.47
2022-08-16T15:49:45.888Z,100795.31
2022-08-16T15:52:51.123Z,100790.28
2022-08-16T15:55:55.417Z,100783.69
2022-08-16T15:59:00.951Z,100773.06
2022-08-16T16:02:05.134Z,100778.78
2022-08-16T16:05:11.119Z,100783.84
2022-08-16T16:08:24.113Z,100776.63
2022-08-16T16:11:28.125Z,100778.78
2022-08-16T16:14:37.585Z,100775.56
2022-08-16T16:17:42.068Z,100775.78
2022-08-16T16:20:49.740Z,100780.16
2022-08-16T16:23:57.963Z,100778.78
2022-08-16T16:27:06.652Z,100788.69
2022-08-16T16:30:33.365Z,100779.91
2022-08-16T16:33:43.654Z,100780.09
2022-08-16T16:36:48.458Z,100783.44
2022-08-16T16:39:53.002Z,100789.13
2022-08-16T16:43:00.079Z,100797.22
2022-08-16T16:46:42.456Z,100794.09
2022-08-16T16:49:32.964Z,100787.34
2022-08-16T16:52:44.006Z,100796.59
2022-08-16T16:55:52.149Z,100793.13
2022-08-16T16:59:01.130Z,100791.28
2022-08-16T17:02:46.166Z,100791.25
2022-08-16T17:05:32.607Z,100800.53
2022-08-16T17:08:37.858Z,100798.88
2022-08-16T17:11:46.597Z,100800.41
2022-08-16T17:14:58.930Z,100797.97
2022-08-16T17:19:16.358Z,100805.34
2022-08-16T17:21:28.278Z,100806.34
2022-08-16T17:24:39.687Z,100808.59
2022-08-16T17:27:43.827Z,100818.63
2022-08-16T17:30:55.022Z,100821.22
2022-08-16T17:34:00.158Z,100833.59
2022-08-16T17:37:09.217Z,100833.19
2022-08-16T17:40:37.246Z,100831.84
2022-08-16T17:43:44.528Z,100834.38
2022-08-16T17:46:52.568Z,100838.34
2022-08-16T17:49:58.923Z,100842.34
2022-08-16T17:53:03.276Z,100840.53
2022-08-16T17:56:07.224Z,100848.34
2022-08-16T17:59:11.261Z,100844.94
2022-08-16T18:02:44.412Z,100853.00
2022-08-16T18:05:40.281Z,100852.84
2022-08-16T18:08:44.100Z,100858.19
2022-08-16T18:11:49.035Z,100850.72
2022-08-16T18:14:54.933Z,100852.31
2022-08-16T18:18:02.272Z,100858.56
2022-08-16T18:21:25.448Z,100866.16
2022-08-16T18:24:30.479Z,100872.09
2022-08-16T18:27:34.439Z,100867.16
2022-08-16T18:30:38.358Z,100863.50
2022-08-16T18:33:43.890Z,100876.66
2022-08-16T18:36:49.447Z,100881.06
2022-08-16T18:39:53.206Z,100884.41
2022-08-16T18:43:00.328Z,100881.00
2022-08-16T18:46:04.128Z,100882.56
2022-08-16T18:49:08.308Z,100883.69
2022-08-16T18:52:25.175Z,100895.13
2022-08-16T18:55:33.571Z,100892.72
2022-08-16T18:58:39.343Z,100901.50
2022-08-16T19:01:43.045Z,100907.66
2022-08-16T19:04:55.400Z,100915.00
2022-08-16T19:08:05.075Z,100923.34
2022-08-16T19:11:14.088Z,100930.66
2022-08-16T19:14:18.270Z,100937.56
2022-08-16T19:17:22.099Z,100943.16
2022-08-16T19:20:29.516Z,100948.38
2022-08-16T19:23:37.428Z,100943.69
2022-08-16T19:26:42.685Z,100952.25
2022-08-16T19:29:49.517Z,100959.53
2022-08-16T19:32:53.498Z,100959.50
2022-08-16T19:35:57.102Z,100956.75
2022-08-16T19:39:05.880Z,100959.66
2022-08-16T19:42:18.289Z,100959.75
2022-08-16T19:45:23.525Z,100965.03
2022-08-16T19:48:27.144Z,100966.66
2022-08-16T19:51:31.361Z,100969.63
2022-08-16T19:54:40.248Z,100975.50
2022-08-16T19:57:46.839Z,100975.53
2022-08-16T20:00:52.433Z,100984.06
2022-08-16T20:04:00.352Z,100984.84
2022-08-16T20:07:03.925Z,100996.03
2022-08-16T20:10:13.195Z,100993.16
2022-08-16T20:13:21.111Z,100997.28
2022-08-16T20:16:25.344Z,101008.72
2022-08-16T20:19:35.204Z,101004.72
2022-08-16T20:23:00.307Z,101007.13
2022-08-16T20:26:05.331Z,101004.09
2022-08-16T20:29:08.918Z,101016.25
2022-08-16T20:32:17.064Z,101013.97
2022-08-16T20:35:24.840Z,101015.03
2022-08-16T20:38:28.521Z,101010.06
2022-08-16T20:41:33.871Z,101011.03
2022-08-16T20:44:37.543Z,101015.88
2022-08-16T20:47:41.753Z,101015.53
2022-08-16T20:50:45.783Z,101023.75
2022-08-16T20:53:49.427Z,101026.19
2022-08-16T20:56:54.399Z,101030.31
2022-08-16T20:59:58.048Z,101032.97
2022-08-16T21:03:03.032Z,101038.44
2022-08-16T21:06:07.437Z,101039.50
2022-08-16T21:09:13.904Z,101038.91
2022-08-16T21:12:18.984Z,101051.16
2022-08-16T21:15:34.904Z,101049.03
2022-08-16T21:18:38.730Z,101056.63
2022-08-16T21:21:42.531Z,101048.03
2022-08-16T21:24:47.255Z,101052.50
2022-08-16T21:28:39.585Z,101060.75
2022-08-16T21:31:19.438Z,101057.34
2022-08-16T21:34:23.051Z,101071.66
2022-08-16T21:37:26.793Z,101076.34
2022-08-16T21:40:34.005Z,101071.38
2022-08-16T21:43:39.049Z,101070.75
2022-08-16T21:46:42.656Z,101071.72
2022-08-16T21:49:46.509Z,101076.19
2022-08-16T21:52:51.897Z,101072.28
2022-08-16T21:55:58.830Z,101075.53
2022-08-16T21:59:10.684Z,101084.53
2022-08-16T22:02:17.940Z,101089.69
2022-08-16T22:05:21.608Z,101080.19
2022-08-16T22:08:25.475Z,101085.66
2022-08-16T22:11:29.383Z,101082.44
2022-08-16T22:14:34.971Z,101100.38
2022-08-16T22:17:38.844Z,101088.44
2022-08-16T22:20:43.555Z,101090.09
2022-08-16T22:23:56.942Z,101099.09
2022-08-16T22:27:01.992Z,101102.16
2022-08-16T22:30:08.927Z,101099.19
2022-08-16T22:33:16.048Z,101099.09
2022-08-16T22:36:19.998Z,101093.38
2022-08-16T22:39:23.929Z,101084.88
2022-08-16T22:42:30.033Z,101092.75
2022-08-16T22:45:36.106Z,101093.25
2022-08-16T22:48:42.620Z,101088.38
2022-08-16T22:51:47.062Z,101096.97
2022-08-16T22:54:50.646Z,101095.56
2022-08-16T22:57:55.596Z,101092.38
2022-08-16T23:01:00.824Z,101093.53
2022-08-16T23:04:05.313Z,101091.81
2022-08-16T23:07:08.936Z,101090.09
2022-08-16T23:10:12.518Z,101092.00
2022-08-16T23:13:18.620Z,101090.88
2022-08-16T23:16:32.769Z,101092.81
2022-08-16T23:19:37.774Z,101089.59
2022-08-16T23:23:21.172Z,101086.09
2022-08-16T23:26:44.187Z,101094.44
2022-08-16T23:29:34.012Z,101088.59
2022-08-16T23:32:46.543Z,101088.81
2022-08-16T23:35:54.520Z,101087.81
2022-08-16T23:38:59.424Z,101085.59
2022-08-16T23:42:03.086Z,101091.94
2022-08-16T23:45:08.035Z,101090.53
2022-08-16T23:48:16.418Z,101095.00
2022-08-16T23:51:20.012Z,101089.69
2022-08-16T23:54:23.809Z,101090.53
2022-08-16T23:57:27.494Z,101092.63
